sensor_id;sensor_type;location;lat;lon;timestamp;P1;durP1;ratioP1;P2;durP2;ratioP2
15516;SDS011;7860;52.030;5.572;2023-02-11T00:03:07;20.81;;;7.04;;
15516;SDS011;7860;52.030;5.572;2023-02-11T00:03:07;20.30;;;7.49;;
15516;SDS011;7860;52.030;5.572;2023-02-11T00:03:07;18.52;;;7.28;;
15516;SDS011;7860;52.030;5.572;2023-02-11T00:03:18;20.19;;;7.17;;
15516;SDS011;7860;52.030;5.572;2023-02-11T00:04:18;20.41;;;7.30;;
15516;SDS011;7860;52.030;5.572;2023-02-11T00:05:18;19.66;;;6.96;;
15516;SDS011;7860;52.030;5.572;2023-02-11T00:06:19;20.12;;;7.12;;
15516;SDS011;7860;52.030;5.572;2023-02-11T00:07:19;21.27;;;7.12;;
15516;SDS011;7860;52.030;5.572;2023-02-11T00:08:19;22.37;;;7.29;;
15516;SDS011;7860;52.030;5.572;2023-02-11T00:09:20;24.44;;;7.76;;
15516;SDS011;7860;52.030;5.572;2023-02-11T00:10:20;19.61;;;6.89;;
15516;SDS011;7860;52.030;5.572;2023-02-11T00:11:22;19.57;;;7.07;;
15516;SDS011;7860;52.030;5.572;2023-02-11T00:12:21;23.43;;;7.05;;
15516;SDS011;7860;52.030;5.572;2023-02-11T00:13:22;21.71;;;6.84;;
15516;SDS011;7860;52.030;5.572;2023-02-11T00:14:22;23.84;;;7.74;;
15516;SDS011;7860;52.030;5.572;2023-02-11T00:15:23;19.28;;;7.38;;
15516;SDS011;7860;52.030;5.572;2023-02-11T00:16:23;17.74;;;6.91;;
15516;SDS011;7860;52.030;5.572;2023-02-11T00:17:24;19.44;;;6.99;;
15516;SDS011;7860;52.030;5.572;2023-02-11T00:18:24;21.14;;;7.02;;
15516;SDS011;7860;52.030;5.572;2023-02-11T00:19:24;21.40;;;7.15;;
15516;SDS011;7860;52.030;5.572;2023-02-11T00:20:25;23.34;;;7.26;;
15516;SDS011;7860;52.030;5.572;2023-02-11T00:21:25;21.30;;;7.29;;
15516;SDS011;7860;52.030;5.572;2023-02-11T00:22:26;21.90;;;7.28;;
15516;SDS011;7860;52.030;5.572;2023-02-11T00:23:26;20.25;;;6.74;;
15516;SDS011;7860;52.030;5.572;2023-02-11T00:24:26;18.98;;;6.75;;
15516;SDS011;7860;52.030;5.572;2023-02-11T00:25:27;21.64;;;6.84;;
15516;SDS011;7860;52.030;5.572;2023-02-11T00:26:27;22.11;;;7.23;;
15516;SDS011;7860;52.030;5.572;2023-02-11T00:27:27;21.31;;;7.34;;
15516;SDS011;7860;52.030;5.572;2023-02-11T00:28:28;18.72;;;6.82;;
15516;SDS011;7860;52.030;5.572;2023-02-11T00:29:28;18.97;;;7.15;;
15516;SDS011;7860;52.030;5.572;2023-02-11T00:30:28;21.63;;;6.79;;
15516;SDS011;7860;52.030;5.572;2023-02-11T00:31:29;23.05;;;7.03;;
15516;SDS011;7860;52.030;5.572;2023-02-11T00:32:30;21.75;;;6.81;;
15516;SDS011;7860;52.030;5.572;2023-02-11T00:33:30;20.76;;;6.76;;
15516;SDS011;7860;52.030;5.572;2023-02-11T00:34:30;18.15;;;7.04;;
15516;SDS011;7860;52.030;5.572;2023-02-11T00:35:30;20.37;;;6.81;;
15516;SDS011;7860;52.030;5.572;2023-02-11T00:36:30;18.40;;;6.75;;
15516;SDS011;7860;52.030;5.572;2023-02-11T00:37:31;18.10;;;6.81;;
15516;SDS011;7860;52.030;5.572;2023-02-11T00:38:31;18.46;;;6.56;;
15516;SDS011;7860;52.030;5.572;2023-02-11T00:39:31;23.29;;;7.44;;
15516;SDS011;7860;52.030;5.572;2023-02-11T00:40:32;18.67;;;7.10;;
15516;SDS011;7860;52.030;5.572;2023-02-11T00:41:32;20.95;;;7.12;;
15516;SDS011;7860;52.030;5.572;2023-02-11T00:42:33;16.22;;;6.91;;
15516;SDS011;7860;52.030;5.572;2023-02-11T00:43:34;20.80;;;6.73;;
15516;SDS011;7860;52.030;5.572;2023-02-11T00:44:33;19.13;;;6.56;;
15516;SDS011;7860;52.030;5.572;2023-02-11T00:45:34;23.42;;;7.73;;
15516;SDS011;7860;52.030;5.572;2023-02-11T00:46:34;21.26;;;6.76;;
15516;SDS011;7860;52.030;5.572;2023-02-11T00:47:34;19.26;;;6.70;;
15516;SDS011;7860;52.030;5.572;2023-02-11T00:48:35;20.05;;;6.79;;
15516;SDS011;7860;52.030;5.572;2023-02-11T00:49:35;20.11;;;7.01;;
15516;SDS011;7860;52.030;5.572;2023-02-11T00:50:36;21.51;;;6.64;;
15516;SDS011;7860;52.030;5.572;2023-02-11T00:51:36;21.67;;;7.42;;
15516;SDS011;7860;52.030;5.572;2023-02-11T00:52:36;21.98;;;7.03;;
15516;SDS011;7860;52.030;5.572;2023-02-11T00:53:37;22.51;;;6.60;;
15516;SDS011;7860;52.030;5.572;2023-02-11T00:54:37;20.15;;;7.02;;
15516;SDS011;7860;52.030;5.572;2023-02-11T00:55:37;21.41;;;6.89;;
15516;SDS011;7860;52.030;5.572;2023-02-11T00:56:38;19.12;;;6.31;;
15516;SDS011;7860;52.030;5.572;2023-02-11T00:57:38;21.70;;;6.59;;
15516;SDS011;7860;52.030;5.572;2023-02-11T00:58:39;21.75;;;6.70;;
15516;SDS011;7860;52.030;5.572;2023-02-11T00:59:39;18.62;;;7.04;;
15516;SDS011;7860;52.030;5.572;2023-02-11T01:00:39;17.73;;;6.42;;
15516;SDS011;7860;52.030;5.572;2023-02-11T01:01:40;19.56;;;6.91;;
15516;SDS011;7860;52.030;5.572;2023-02-11T01:02:40;18.41;;;6.98;;
15516;SDS011;7860;52.030;5.572;2023-02-11T01:03:41;21.17;;;6.43;;
15516;SDS011;7860;52.030;5.572;2023-02-11T01:04:41;19.61;;;6.80;;
15516;SDS011;7860;52.030;5.572;2023-02-11T01:05:42;20.02;;;6.82;;
15516;SDS011;7860;52.030;5.572;2023-02-11T01:06:42;18.96;;;6.71;;
15516;SDS011;7860;52.030;5.572;2023-02-11T01:07:43;18.70;;;6.33;;
15516;SDS011;7860;52.030;5.572;2023-02-11T01:08:43;22.56;;;7.12;;
15516;SDS011;7860;52.030;5.572;2023-02-11T01:09:44;19.04;;;6.54;;
15516;SDS011;7860;52.030;5.572;2023-02-11T01:10:44;19.31;;;6.60;;
15516;SDS011;7860;52.030;5.572;2023-02-11T01:11:45;20.10;;;6.52;;
15516;SDS011;7860;52.030;5.572;2023-02-11T01:12:45;18.76;;;6.86;;
15516;SDS011;7860;52.030;5.572;2023-02-11T01:13:45;21.07;;;6.74;;
15516;SDS011;7860;52.030;5.572;2023-02-11T01:14:46;20.49;;;6.63;;
15516;SDS011;7860;52.030;5.572;2023-02-11T01:15:46;21.95;;;6.36;;
15516;SDS011;7860;52.030;5.572;2023-02-11T01:16:46;22.53;;;6.97;;
15516;SDS011;7860;52.030;5.572;2023-02-11T01:17:47;21.37;;;6.33;;
15516;SDS011;7860;52.030;5.572;2023-02-11T01:18:47;16.84;;;6.22;;
15516;SDS011;7860;52.030;5.572;2023-02-11T01:19:47;20.45;;;6.58;;
15516;SDS011;7860;52.030;5.572;2023-02-11T01:20:47;22.38;;;6.70;;
15516;SDS011;7860;52.030;5.572;2023-02-11T01:21:48;23.26;;;6.56;;
15516;SDS011;7860;52.030;5.572;2023-02-11T01:22:48;20.96;;;6.51;;
15516;SDS011;7860;52.030;5.572;2023-02-11T01:23:49;18.25;;;6.45;;
15516;SDS011;7860;52.030;5.572;2023-02-11T01:24:49;19.07;;;6.13;;
15516;SDS011;7860;52.030;5.572;2023-02-11T01:25:51;19.65;;;6.37;;
15516;SDS011;7860;52.030;5.572;2023-02-11T01:26:50;22.00;;;6.51;;
15516;SDS011;7860;52.030;5.572;2023-02-11T01:27:51;17.63;;;6.24;;
15516;SDS011;7860;52.030;5.572;2023-02-11T01:28:51;18.30;;;6.46;;
15516;SDS011;7860;52.030;5.572;2023-02-11T01:29:51;19.43;;;6.59;;
15516;SDS011;7860;52.030;5.572;2023-02-11T01:30:51;19.13;;;5.84;;
15516;SDS011;7860;52.030;5.572;2023-02-11T01:31:52;21.22;;;5.93;;
15516;SDS011;7860;52.030;5.572;2023-02-11T01:32:52;21.39;;;6.45;;
15516;SDS011;7860;52.030;5.572;2023-02-11T01:33:52;18.97;;;5.93;;
15516;SDS011;7860;52.030;5.572;2023-02-11T01:34:53;17.84;;;5.90;;
15516;SDS011;7860;52.030;5.572;2023-02-11T01:35:53;21.40;;;6.16;;
15516;SDS011;7860;52.030;5.572;2023-02-11T01:36:55;17.88;;;5.59;;
15516;SDS011;7860;52.030;5.572;2023-02-11T01:37:54;20.88;;;5.68;;
15516;SDS011;7860;52.030;5.572;2023-02-11T01:38:54;22.00;;;6.87;;
15516;SDS011;7860;52.030;5.572;2023-02-11T01:39:55;18.37;;;5.77;;
15516;SDS011;7860;52.030;5.572;2023-02-11T01:40:56;21.47;;;6.00;;
15516;SDS011;7860;52.030;5.572;2023-02-11T01:41:55;23.11;;;5.83;;
15516;SDS011;7860;52.030;5.572;2023-02-11T01:42:56;21.78;;;6.15;;
15516;SDS011;7860;52.030;5.572;2023-02-11T01:43:56;21.56;;;5.65;;
15516;SDS011;7860;52.030;5.572;2023-02-11T01:44:57;20.47;;;5.86;;
15516;SDS011;7860;52.030;5.572;2023-02-11T01:46:00;22.20;;;5.86;;
15516;SDS011;7860;52.030;5.572;2023-02-11T01:46:58;20.39;;;6.31;;
15516;SDS011;7860;52.030;5.572;2023-02-11T01:47:58;22.19;;;5.50;;
15516;SDS011;7860;52.030;5.572;2023-02-11T01:49:00;21.47;;;5.82;;
15516;SDS011;7860;52.030;5.572;2023-02-11T01:49:59;22.32;;;5.80;;
15516;SDS011;7860;52.030;5.572;2023-02-11T01:51:00;18.29;;;5.72;;
15516;SDS011;7860;52.030;5.572;2023-02-11T01:52:00;19.24;;;5.53;;
15516;SDS011;7860;52.030;5.572;2023-02-11T01:53:00;20.89;;;5.90;;
15516;SDS011;7860;52.030;5.572;2023-02-11T01:54:01;18.57;;;5.85;;
15516;SDS011;7860;52.030;5.572;2023-02-11T01:55:03;20.13;;;6.02;;
15516;SDS011;7860;52.030;5.572;2023-02-11T01:56:03;22.65;;;6.10;;
15516;SDS011;7860;52.030;5.572;2023-02-11T01:57:02;22.14;;;6.27;;
15516;SDS011;7860;52.030;5.572;2023-02-11T01:58:03;16.95;;;5.57;;
15516;SDS011;7860;52.030;5.572;2023-02-11T01:59:05;22.44;;;5.98;;
15516;SDS011;7860;52.030;5.572;2023-02-11T02:00:07;17.45;;;5.46;;
15516;SDS011;7860;52.030;5.572;2023-02-11T02:01:04;18.92;;;5.45;;
15516;SDS011;7860;52.030;5.572;2023-02-11T02:02:05;16.92;;;5.46;;
15516;SDS011;7860;52.030;5.572;2023-02-11T02:03:06;16.01;;;5.19;;
15516;SDS011;7860;52.030;5.572;2023-02-11T02:04:05;18.50;;;5.66;;
15516;SDS011;7860;52.030;5.572;2023-02-11T02:05:07;17.95;;;5.30;;
15516;SDS011;7860;52.030;5.572;2023-02-11T02:06:08;19.31;;;5.75;;
15516;SDS011;7860;52.030;5.572;2023-02-11T02:07:08;19.81;;;5.26;;
15516;SDS011;7860;52.030;5.572;2023-02-11T02:08:08;19.08;;;5.39;;
15516;SDS011;7860;52.030;5.572;2023-02-11T02:09:09;18.05;;;5.74;;
15516;SDS011;7860;52.030;5.572;2023-02-11T02:10:10;18.64;;;5.77;;
15516;SDS011;7860;52.030;5.572;2023-02-11T02:11:08;19.38;;;5.49;;
15516;SDS011;7860;52.030;5.572;2023-02-11T02:12:09;18.80;;;5.59;;
15516;SDS011;7860;52.030;5.572;2023-02-11T02:13:09;21.49;;;5.83;;
15516;SDS011;7860;52.030;5.572;2023-02-11T02:14:10;20.30;;;5.98;;
15516;SDS011;7860;52.030;5.572;2023-02-11T02:15:17;19.94;;;5.75;;
15516;SDS011;7860;52.030;5.572;2023-02-11T02:16:12;20.08;;;5.67;;
15516;SDS011;7860;52.030;5.572;2023-02-11T02:17:14;21.53;;;6.10;;
15516;SDS011;7860;52.030;5.572;2023-02-11T02:18:17;18.73;;;5.92;;
15516;SDS011;7860;52.030;5.572;2023-02-11T02:19:18;18.25;;;5.47;;
15516;SDS011;7860;52.030;5.572;2023-02-11T02:20:19;19.83;;;5.53;;
15516;SDS011;7860;52.030;5.572;2023-02-11T02:21:35;19.54;;;6.03;;
15516;SDS011;7860;52.030;5.572;2023-02-11T02:23:16;23.41;;;5.36;;
15516;SDS011;7860;52.030;5.572;2023-02-11T02:24:20;19.97;;;5.54;;
15516;SDS011;7860;52.030;5.572;2023-02-11T02:25:19;18.34;;;5.39;;
15516;SDS011;7860;52.030;5.572;2023-02-11T02:26:18;21.06;;;5.97;;
15516;SDS011;7860;52.030;5.572;2023-02-11T02:27:18;20.87;;;5.69;;
15516;SDS011;7860;52.030;5.572;2023-02-11T02:28:20;19.10;;;5.54;;
15516;SDS011;7860;52.030;5.572;2023-02-11T02:29:19;16.98;;;5.68;;
15516;SDS011;7860;52.030;5.572;2023-02-11T02:30:23;19.68;;;6.26;;
15516;SDS011;7860;52.030;5.572;2023-02-11T02:31:24;19.86;;;5.81;;
15516;SDS011;7860;52.030;5.572;2023-02-11T02:32:22;20.72;;;5.79;;
15516;SDS011;7860;52.030;5.572;2023-02-11T02:33:21;22.84;;;6.79;;
15516;SDS011;7860;52.030;5.572;2023-02-11T02:34:18;17.93;;;6.27;;
15516;SDS011;7860;52.030;5.572;2023-02-11T02:35:23;20.73;;;6.07;;
15516;SDS011;7860;52.030;5.572;2023-02-11T02:36:21;21.63;;;5.77;;
15516;SDS011;7860;52.030;5.572;2023-02-11T02:37:20;19.07;;;5.57;;
15516;SDS011;7860;52.030;5.572;2023-02-11T02:38:22;19.64;;;5.74;;
15516;SDS011;7860;52.030;5.572;2023-02-11T02:39:21;22.24;;;6.08;;
15516;SDS011;7860;52.030;5.572;2023-02-11T02:40:22;19.28;;;5.98;;
15516;SDS011;7860;52.030;5.572;2023-02-11T02:41:22;20.90;;;6.08;;
15516;SDS011;7860;52.030;5.572;2023-02-11T02:42:21;18.45;;;5.93;;
15516;SDS011;7860;52.030;5.572;2023-02-11T02:43:22;15.90;;;5.70;;
15516;SDS011;7860;52.030;5.572;2023-02-11T02:44:22;19.98;;;5.99;;
15516;SDS011;7860;52.030;5.572;2023-02-11T02:45:23;20.68;;;5.67;;
15516;SDS011;7860;52.030;5.572;2023-02-11T02:46:24;16.52;;;5.87;;
15516;SDS011;7860;52.030;5.572;2023-02-11T02:47:24;21.20;;;5.98;;
15516;SDS011;7860;52.030;5.572;2023-02-11T02:48:24;19.12;;;6.05;;
15516;SDS011;7860;52.030;5.572;2023-02-11T02:49:24;21.63;;;6.15;;
15516;SDS011;7860;52.030;5.572;2023-02-11T02:50:25;22.26;;;6.31;;
15516;SDS011;7860;52.030;5.572;2023-02-11T02:51:29;17.91;;;6.39;;
15516;SDS011;7860;52.030;5.572;2023-02-11T02:52:29;18.69;;;6.14;;
15516;SDS011;7860;52.030;5.572;2023-02-11T02:53:27;21.31;;;6.33;;
15516;SDS011;7860;52.030;5.572;2023-02-11T02:54:28;19.03;;;6.34;;
15516;SDS011;7860;52.030;5.572;2023-02-11T02:55:30;19.07;;;5.89;;
15516;SDS011;7860;52.030;5.572;2023-02-11T02:56:28;26.26;;;6.91;;
15516;SDS011;7860;52.030;5.572;2023-02-11T02:57:28;20.00;;;6.63;;
15516;SDS011;7860;52.030;5.572;2023-02-11T02:58:34;19.97;;;6.58;;
15516;SDS011;7860;52.030;5.572;2023-02-11T02:59:32;22.18;;;6.03;;
15516;SDS011;7860;52.030;5.572;2023-02-11T03:00:29;24.78;;;6.99;;
15516;SDS011;7860;52.030;5.572;2023-02-11T03:01:33;22.91;;;6.94;;
15516;SDS011;7860;52.030;5.572;2023-02-11T03:02:30;21.22;;;6.16;;
15516;SDS011;7860;52.030;5.572;2023-02-11T03:03:33;21.70;;;6.52;;
15516;SDS011;7860;52.030;5.572;2023-02-11T03:04:34;23.29;;;6.91;;
15516;SDS011;7860;52.030;5.572;2023-02-11T03:05:33;20.05;;;6.66;;
15516;SDS011;7860;52.030;5.572;2023-02-11T03:06:33;23.51;;;6.62;;
15516;SDS011;7860;52.030;5.572;2023-02-11T03:07:35;20.08;;;6.91;;
15516;SDS011;7860;52.030;5.572;2023-02-11T03:08:33;26.01;;;7.51;;
15516;SDS011;7860;52.030;5.572;2023-02-11T03:09:33;23.04;;;7.36;;
15516;SDS011;7860;52.030;5.572;2023-02-11T03:10:34;22.94;;;6.74;;
15516;SDS011;7860;52.030;5.572;2023-02-11T03:11:33;20.34;;;6.58;;
15516;SDS011;7860;52.030;5.572;2023-02-11T03:12:33;20.95;;;6.98;;
15516;SDS011;7860;52.030;5.572;2023-02-11T03:13:35;19.49;;;6.84;;
15516;SDS011;7860;52.030;5.572;2023-02-11T03:14:34;23.20;;;7.05;;
15516;SDS011;7860;52.030;5.572;2023-02-11T03:15:37;18.25;;;7.05;;
15516;SDS011;7860;52.030;5.572;2023-02-11T03:16:35;22.33;;;7.15;;
15516;SDS011;7860;52.030;5.572;2023-02-11T03:17:50;22.96;;;7.49;;
15516;SDS011;7860;52.030;5.572;2023-02-11T03:18:51;20.91;;;7.07;;
15516;SDS011;7860;52.030;5.572;2023-02-11T03:19:51;24.18;;;7.55;;
15516;SDS011;7860;52.030;5.572;2023-02-11T03:20:51;19.86;;;7.21;;
15516;SDS011;7860;52.030;5.572;2023-02-11T03:21:52;21.39;;;7.81;;
15516;SDS011;7860;52.030;5.572;2023-02-11T03:22:53;21.93;;;7.48;;
15516;SDS011;7860;52.030;5.572;2023-02-11T03:23:54;18.43;;;6.93;;
15516;SDS011;7860;52.030;5.572;2023-02-11T03:24:53;20.73;;;7.08;;
15516;SDS011;7860;52.030;5.572;2023-02-11T03:25:55;22.55;;;7.12;;
15516;SDS011;7860;52.030;5.572;2023-02-11T03:26:55;19.07;;;7.28;;
15516;SDS011;7860;52.030;5.572;2023-02-11T03:27:56;24.16;;;7.27;;
15516;SDS011;7860;52.030;5.572;2023-02-11T03:28:57;17.46;;;7.21;;
15516;SDS011;7860;52.030;5.572;2023-02-11T03:29:57;22.69;;;7.61;;
15516;SDS011;7860;52.030;5.572;2023-02-11T03:30:56;20.65;;;7.39;;
15516;SDS011;7860;52.030;5.572;2023-02-11T03:31:58;21.17;;;8.18;;
15516;SDS011;7860;52.030;5.572;2023-02-11T03:32:56;22.91;;;8.41;;
15516;SDS011;7860;52.030;5.572;2023-02-11T03:33:59;24.53;;;8.07;;
15516;SDS011;7860;52.030;5.572;2023-02-11T03:34:59;22.10;;;8.03;;
15516;SDS011;7860;52.030;5.572;2023-02-11T03:35:59;21.32;;;8.28;;
15516;SDS011;7860;52.030;5.572;2023-02-11T03:36:58;22.27;;;7.61;;
15516;SDS011;7860;52.030;5.572;2023-02-11T03:37:59;21.34;;;7.72;;
15516;SDS011;7860;52.030;5.572;2023-02-11T03:39:00;25.07;;;7.89;;
15516;SDS011;7860;52.030;5.572;2023-02-11T03:40:00;23.96;;;7.66;;
15516;SDS011;7860;52.030;5.572;2023-02-11T03:41:01;22.06;;;8.14;;
15516;SDS011;7860;52.030;5.572;2023-02-11T03:42:01;22.25;;;7.89;;
15516;SDS011;7860;52.030;5.572;2023-02-11T03:43:02;23.55;;;8.08;;
15516;SDS011;7860;52.030;5.572;2023-02-11T03:44:02;24.46;;;8.26;;
15516;SDS011;7860;52.030;5.572;2023-02-11T03:45:04;22.68;;;8.20;;
15516;SDS011;7860;52.030;5.572;2023-02-11T03:46:03;20.01;;;8.17;;
15516;SDS011;7860;52.030;5.572;2023-02-11T03:47:03;24.50;;;8.14;;
15516;SDS011;7860;52.030;5.572;2023-02-11T03:48:04;21.27;;;7.66;;
15516;SDS011;7860;52.030;5.572;2023-02-11T03:49:04;25.02;;;8.43;;
15516;SDS011;7860;52.030;5.572;2023-02-11T03:50:05;23.88;;;8.61;;
15516;SDS011;7860;52.030;5.572;2023-02-11T03:51:05;24.48;;;8.26;;
15516;SDS011;7860;52.030;5.572;2023-02-11T03:52:04;24.13;;;8.85;;
15516;SDS011;7860;52.030;5.572;2023-02-11T03:53:05;20.97;;;8.07;;
15516;SDS011;7860;52.030;5.572;2023-02-11T03:54:06;23.19;;;8.41;;
15516;SDS011;7860;52.030;5.572;2023-02-11T03:55:08;22.01;;;8.28;;
15516;SDS011;7860;52.030;5.572;2023-02-11T03:56:08;21.40;;;8.42;;
15516;SDS011;7860;52.030;5.572;2023-02-11T03:57:06;21.34;;;8.76;;
15516;SDS011;7860;52.030;5.572;2023-02-11T03:58:07;25.67;;;9.07;;
15516;SDS011;7860;52.030;5.572;2023-02-11T03:59:07;23.35;;;9.15;;
15516;SDS011;7860;52.030;5.572;2023-02-11T04:00:08;21.07;;;8.63;;
15516;SDS011;7860;52.030;5.572;2023-02-11T04:01:07;24.37;;;8.66;;
15516;SDS011;7860;52.030;5.572;2023-02-11T04:02:08;23.41;;;9.22;;
15516;SDS011;7860;52.030;5.572;2023-02-11T04:03:09;23.17;;;9.10;;
15516;SDS011;7860;52.030;5.572;2023-02-11T04:04:09;22.48;;;8.76;;
15516;SDS011;7860;52.030;5.572;2023-02-11T04:05:10;23.53;;;8.72;;
15516;SDS011;7860;52.030;5.572;2023-02-11T04:06:10;24.52;;;10.00;;
15516;SDS011;7860;52.030;5.572;2023-02-11T04:07:11;23.32;;;9.62;;
15516;SDS011;7860;52.030;5.572;2023-02-11T04:08:11;24.69;;;9.97;;
15516;SDS011;7860;52.030;5.572;2023-02-11T04:09:12;19.93;;;8.90;;
15516;SDS011;7860;52.030;5.572;2023-02-11T04:10:12;30.02;;;9.77;;
15516;SDS011;7860;52.030;5.572;2023-02-11T04:11:13;22.10;;;9.24;;
15516;SDS011;7860;52.030;5.572;2023-02-11T04:12:13;22.64;;;9.30;;
15516;SDS011;7860;52.030;5.572;2023-02-11T04:13:14;26.15;;;10.21;;
15516;SDS011;7860;52.030;5.572;2023-02-11T04:14:14;23.68;;;10.07;;
15516;SDS011;7860;52.030;5.572;2023-02-11T04:15:14;25.28;;;10.24;;
15516;SDS011;7860;52.030;5.572;2023-02-11T04:16:15;21.48;;;9.35;;
15516;SDS011;7860;52.030;5.572;2023-02-11T04:17:16;27.50;;;10.61;;
15516;SDS011;7860;52.030;5.572;2023-02-11T04:18:16;22.52;;;9.35;;
15516;SDS011;7860;52.030;5.572;2023-02-11T04:19:17;21.51;;;9.12;;
15516;SDS011;7860;52.030;5.572;2023-02-11T04:20:17;25.64;;;10.14;;
15516;SDS011;7860;52.030;5.572;2023-02-11T04:21:18;21.93;;;9.54;;
15516;SDS011;7860;52.030;5.572;2023-02-11T04:22:19;25.71;;;10.58;;
15516;SDS011;7860;52.030;5.572;2023-02-11T04:23:19;26.03;;;10.41;;
15516;SDS011;7860;52.030;5.572;2023-02-11T04:24:20;24.77;;;10.36;;
15516;SDS011;7860;52.030;5.572;2023-02-11T04:25:20;26.61;;;10.68;;
15516;SDS011;7860;52.030;5.572;2023-02-11T04:26:20;26.97;;;10.52;;
15516;SDS011;7860;52.030;5.572;2023-02-11T04:27:21;29.39;;;10.94;;
15516;SDS011;7860;52.030;5.572;2023-02-11T04:28:21;24.09;;;10.65;;
15516;SDS011;7860;52.030;5.572;2023-02-11T04:29:21;26.77;;;10.77;;
15516;SDS011;7860;52.030;5.572;2023-02-11T04:30:21;26.54;;;10.90;;
15516;SDS011;7860;52.030;5.572;2023-02-11T04:31:22;26.43;;;10.53;;
15516;SDS011;7860;52.030;5.572;2023-02-11T04:32:22;28.59;;;11.41;;
15516;SDS011;7860;52.030;5.572;2023-02-11T04:33:23;23.90;;;10.45;;
15516;SDS011;7860;52.030;5.572;2023-02-11T04:34:23;30.57;;;10.79;;
15516;SDS011;7860;52.030;5.572;2023-02-11T04:35:23;26.78;;;10.82;;
15516;SDS011;7860;52.030;5.572;2023-02-11T04:36:23;29.97;;;11.49;;
15516;SDS011;7860;52.030;5.572;2023-02-11T04:37:24;27.83;;;11.44;;
15516;SDS011;7860;52.030;5.572;2023-02-11T04:38:24;27.39;;;11.24;;
15516;SDS011;7860;52.030;5.572;2023-02-11T04:39:25;27.76;;;10.34;;
15516;SDS011;7860;52.030;5.572;2023-02-11T04:40:26;28.45;;;11.40;;
15516;SDS011;7860;52.030;5.572;2023-02-11T04:41:26;24.57;;;10.56;;
15516;SDS011;7860;52.030;5.572;2023-02-11T04:42:26;26.58;;;11.33;;
15516;SDS011;7860;52.030;5.572;2023-02-11T04:43:27;24.14;;;10.85;;
15516;SDS011;7860;52.030;5.572;2023-02-11T04:44:27;29.22;;;10.85;;
15516;SDS011;7860;52.030;5.572;2023-02-11T04:45:28;24.00;;;10.90;;
15516;SDS011;7860;52.030;5.572;2023-02-11T04:46:28;28.75;;;11.42;;
15516;SDS011;7860;52.030;5.572;2023-02-11T04:47:29;24.54;;;10.66;;
15516;SDS011;7860;52.030;5.572;2023-02-11T04:48:29;28.37;;;11.26;;
15516;SDS011;7860;52.030;5.572;2023-02-11T04:49:30;25.66;;;11.77;;
15516;SDS011;7860;52.030;5.572;2023-02-11T04:50:31;26.22;;;10.72;;
15516;SDS011;7860;52.030;5.572;2023-02-11T04:51:31;27.68;;;11.61;;
15516;SDS011;7860;52.030;5.572;2023-02-11T04:52:31;29.63;;;11.16;;
15516;SDS011;7860;52.030;5.572;2023-02-11T04:53:32;23.46;;;11.14;;
15516;SDS011;7860;52.030;5.572;2023-02-11T04:54:32;24.13;;;11.61;;
15516;SDS011;7860;52.030;5.572;2023-02-11T04:55:33;32.12;;;12.36;;
15516;SDS011;7860;52.030;5.572;2023-02-11T04:56:33;28.78;;;11.43;;
15516;SDS011;7860;52.030;5.572;2023-02-11T04:57:34;24.97;;;11.34;;
15516;SDS011;7860;52.030;5.572;2023-02-11T04:58:34;27.19;;;11.88;;
15516;SDS011;7860;52.030;5.572;2023-02-11T04:59:35;28.00;;;11.12;;
15516;SDS011;7860;52.030;5.572;2023-02-11T05:00:35;27.21;;;11.69;;
15516;SDS011;7860;52.030;5.572;2023-02-11T05:01:36;29.19;;;12.34;;
15516;SDS011;7860;52.030;5.572;2023-02-11T05:02:36;31.05;;;12.07;;
15516;SDS011;7860;52.030;5.572;2023-02-11T05:03:37;24.47;;;11.44;;
15516;SDS011;7860;52.030;5.572;2023-02-11T05:04:37;28.31;;;11.69;;
15516;SDS011;7860;52.030;5.572;2023-02-11T05:05:38;28.69;;;12.42;;
15516;SDS011;7860;52.030;5.572;2023-02-11T05:06:38;26.61;;;11.56;;
15516;SDS011;7860;52.030;5.572;2023-02-11T05:07:38;28.82;;;12.64;;
15516;SDS011;7860;52.030;5.572;2023-02-11T05:08:39;30.49;;;12.31;;
15516;SDS011;7860;52.030;5.572;2023-02-11T05:09:39;27.99;;;12.64;;
15516;SDS011;7860;52.030;5.572;2023-02-11T05:10:39;31.68;;;12.20;;
15516;SDS011;7860;52.030;5.572;2023-02-11T05:11:41;28.32;;;12.56;;
15516;SDS011;7860;52.030;5.572;2023-02-11T05:12:40;34.72;;;12.57;;
15516;SDS011;7860;52.030;5.572;2023-02-11T05:13:41;28.16;;;12.60;;
15516;SDS011;7860;52.030;5.572;2023-02-11T05:14:41;29.88;;;12.17;;
15516;SDS011;7860;52.030;5.572;2023-02-11T05:15:42;30.36;;;12.41;;
15516;SDS011;7860;52.030;5.572;2023-02-11T05:16:42;29.82;;;12.43;;
15516;SDS011;7860;52.030;5.572;2023-02-11T05:17:42;28.38;;;12.67;;
15516;SDS011;7860;52.030;5.572;2023-02-11T05:18:43;28.17;;;12.10;;
15516;SDS011;7860;52.030;5.572;2023-02-11T05:19:44;29.22;;;11.71;;
15516;SDS011;7860;52.030;5.572;2023-02-11T05:20:44;27.06;;;12.03;;
15516;SDS011;7860;52.030;5.572;2023-02-11T05:21:44;26.06;;;12.56;;
15516;SDS011;7860;52.030;5.572;2023-02-11T05:22:44;31.80;;;13.19;;
15516;SDS011;7860;52.030;5.572;2023-02-11T05:23:45;30.56;;;12.96;;
15516;SDS011;7860;52.030;5.572;2023-02-11T05:24:46;27.94;;;12.92;;
15516;SDS011;7860;52.030;5.572;2023-02-11T05:25:46;26.98;;;12.13;;
15516;SDS011;7860;52.030;5.572;2023-02-11T05:26:47;28.80;;;13.21;;
15516;SDS011;7860;52.030;5.572;2023-02-11T05:27:47;29.63;;;13.46;;
15516;SDS011;7860;52.030;5.572;2023-02-11T05:28:47;30.19;;;12.96;;
15516;SDS011;7860;52.030;5.572;2023-02-11T05:29:48;30.77;;;13.57;;
15516;SDS011;7860;52.030;5.572;2023-02-11T05:30:48;28.08;;;12.60;;
15516;SDS011;7860;52.030;5.572;2023-02-11T05:31:49;30.37;;;13.35;;
15516;SDS011;7860;52.030;5.572;2023-02-11T05:32:50;25.98;;;13.49;;
15516;SDS011;7860;52.030;5.572;2023-02-11T05:33:50;28.65;;;13.06;;
15516;SDS011;7860;52.030;5.572;2023-02-11T05:34:51;30.85;;;13.36;;
15516;SDS011;7860;52.030;5.572;2023-02-11T05:35:52;30.79;;;13.48;;
15516;SDS011;7860;52.030;5.572;2023-02-11T05:36:52;32.19;;;13.21;;
15516;SDS011;7860;52.030;5.572;2023-02-11T05:37:53;31.80;;;12.78;;
15516;SDS011;7860;52.030;5.572;2023-02-11T05:38:53;27.78;;;13.05;;
15516;SDS011;7860;52.030;5.572;2023-02-11T05:39:54;28.82;;;13.11;;
15516;SDS011;7860;52.030;5.572;2023-02-11T05:40:54;34.42;;;14.52;;
15516;SDS011;7860;52.030;5.572;2023-02-11T05:41:55;30.92;;;13.74;;
15516;SDS011;7860;52.030;5.572;2023-02-11T05:42:55;29.97;;;13.46;;
15516;SDS011;7860;52.030;5.572;2023-02-11T05:43:55;31.39;;;14.44;;
15516;SDS011;7860;52.030;5.572;2023-02-11T05:44:55;30.02;;;13.71;;
15516;SDS011;7860;52.030;5.572;2023-02-11T05:45:56;29.95;;;14.15;;
15516;SDS011;7860;52.030;5.572;2023-02-11T05:46:57;28.96;;;14.13;;
15516;SDS011;7860;52.030;5.572;2023-02-11T05:47:57;31.23;;;13.57;;
15516;SDS011;7860;52.030;5.572;2023-02-11T05:48:57;31.26;;;14.15;;
15516;SDS011;7860;52.030;5.572;2023-02-11T05:49:57;33.41;;;14.71;;
15516;SDS011;7860;52.030;5.572;2023-02-11T05:50:58;32.09;;;14.26;;
15516;SDS011;7860;52.030;5.572;2023-02-11T05:51:58;32.76;;;14.59;;
15516;SDS011;7860;52.030;5.572;2023-02-11T05:52:59;31.50;;;14.37;;
15516;SDS011;7860;52.030;5.572;2023-02-11T05:53:59;31.01;;;14.03;;
15516;SDS011;7860;52.030;5.572;2023-02-11T05:55:00;29.31;;;14.28;;
15516;SDS011;7860;52.030;5.572;2023-02-11T05:56:00;31.21;;;14.39;;
15516;SDS011;7860;52.030;5.572;2023-02-11T05:57:01;30.54;;;14.70;;
15516;SDS011;7860;52.030;5.572;2023-02-11T05:58:01;34.04;;;14.29;;
15516;SDS011;7860;52.030;5.572;2023-02-11T05:59:02;32.54;;;15.14;;
15516;SDS011;7860;52.030;5.572;2023-02-11T06:00:05;32.87;;;15.37;;
15516;SDS011;7860;52.030;5.572;2023-02-11T06:01:03;36.88;;;15.54;;
15516;SDS011;7860;52.030;5.572;2023-02-11T06:02:03;34.63;;;14.99;;
15516;SDS011;7860;52.030;5.572;2023-02-11T06:03:04;31.68;;;14.51;;